Time;durP1;ratioP1;P1;durP2;ratioP2;P2;SDS_P1;SDS_P2;PMS_P1;PMS_P2;Temp;Humidity;BMP_temperature;BMP_pressure;BME280_temperature;BME280_humidity;BME280_pressure;Samples;Min_cycle;Max_cycle;Signal;HPM_P1;HPM_P2
2021/09/04 00:00:06;;;;;;;19.17;12.00;;;;;;;15.58;nan;101298.69;691650;28;22932;-64
2021/09/04 00:00:28;;;;;;;19.63;11.80;;;;;;;15.57;nan;101300.56;690033;28;68036;-63
2021/09/04 00:00:50;;;;;;;18.70;12.27;;;;;;;15.57;nan;101300.56;691130;28;45470;-63
2021/09/04 00:01:11;;;;;;;16.23;11.63;;;;;;;15.56;nan;101300.78;691368;28;47119;-64
2021/09/04 00:01:32;;;;;;;16.67;11.50;;;;;;;15.55;nan;101301.81;692442;28;22138;-64
2021/09/04 00:01:54;;;;;;;18.15;11.40;;;;;;;15.53;nan;101299.28;692573;28;22607;-63
2021/09/04 00:02:16;;;;;;;17.83;11.63;;;;;;;15.52;nan;101300.34;691315;28;22620;-64
2021/09/04 00:02:37;;;;;;;17.65;11.48;;;;;;;15.52;nan;101299.47;690753;28;68997;-64
2021/09/04 00:02:58;;;;;;;17.08;11.75;;;;;;;15.49;nan;101287.94;691863;28;24439;-64
2021/09/04 00:03:19;;;;;;;17.60;12.18;;;;;;;15.49;nan;101304.28;692169;28;22600;-63
2021/09/04 00:03:41;;;;;;;17.90;11.90;;;;;;;15.49;nan;101300.72;691661;28;46107;-64
2021/09/04 00:04:04;;;;;;;18.27;11.45;;;;;;;15.49;nan;101298.84;691176;28;45080;-64
2021/09/04 00:04:25;;;;;;;19.77;11.57;;;;;;;15.44;nan;101295.88;691287;28;47109;-65
2021/09/04 00:04:46;;;;;;;19.38;11.20;;;;;;;15.45;nan;101299.41;691175;28;47232;-63
2021/09/04 00:05:08;;;;;;;17.77;10.98;;;;;;;15.44;nan;101306.75;692549;28;22621;-64
2021/09/04 00:05:31;;;;;;;15.27;10.93;;;;;;;15.44;nan;101301.31;691208;28;46131;-64
2021/09/04 00:05:52;;;;;;;18.20;11.48;;;;;;;15.43;nan;101299.63;691453;28;46066;-64
2021/09/04 00:06:14;;;;;;;18.67;11.18;;;;;;;15.40;nan;101296.44;692214;28;22173;-64
2021/09/04 00:06:36;;;;;;;19.60;10.70;;;;;;;15.40;nan;101301.91;690635;28;68617;-63
2021/09/04 00:06:58;;;;;;;20.42;11.23;;;;;;;15.37;nan;101307.72;692505;28;23790;-64
2021/09/04 00:07:20;;;;;;;20.42;11.48;;;;;;;15.34;nan;101303.50;690285;28;68935;-64
2021/09/04 00:07:41;;;;;;;19.10;11.57;;;;;;;15.32;nan;101308.31;691096;28;45491;-64
2021/09/04 00:08:03;;;;;;;18.88;11.52;;;;;;;15.30;nan;101310.41;692242;28;22233;-64
2021/09/04 00:08:26;;;;;;;15.77;10.95;;;;;;;15.25;nan;101308.25;690807;28;45100;-65
2021/09/04 00:08:49;;;;;;;15.45;11.05;;;;;;;15.23;nan;101302.16;689161;28;91992;-64
2021/09/04 00:09:12;;;;;;;17.83;11.40;;;;;;;15.23;nan;101306.75;690618;28;46080;-64
2021/09/04 00:09:34;;;;;;;18.58;11.25;;;;;;;15.19;nan;101310.88;689835;28;67845;-66
2021/09/04 00:09:57;;;;;;;17.20;10.80;;;;;;;15.13;nan;101302.47;691522;28;46216;-64
2021/09/04 00:10:19;;;;;;;16.73;11.32;;;;;;;15.12;nan;101305.38;689785;28;70259;-64
2021/09/04 00:10:40;;;;;;;16.88;11.75;;;;;;;15.09;nan;101309.34;691366;28;22539;-65
2021/09/04 00:11:02;;;;;;;17.95;11.60;;;;;;;15.07;nan;101303.25;691506;28;46003;-64
2021/09/04 00:11:26;;;;;;;18.30;11.27;;;;;;;15.06;nan;101306.16;689574;28;68909;-65
2021/09/04 00:11:47;;;;;;;19.38;11.48;;;;;;;15.03;nan;101303.81;691036;28;45085;-64
2021/09/04 00:12:09;;;;;;;16.50;11.60;;;;;;;15.04;nan;101310.94;691023;28;46001;-64
2021/09/04 00:12:30;;;;;;;16.15;10.90;;;;;;;15.02;nan;101304.88;690898;28;22539;-64
2021/09/04 00:12:56;;;;;;;19.70;11.27;;;;;;;15.01;nan;101300.47;690011;28;67958;-64
2021/09/04 00:13:17;;;;;;;16.13;11.10;;;;;;;15.00;nan;101305.06;689166;28;114797;-64
2021/09/04 00:13:39;;;;;;;16.65;11.38;;;;;;;14.99;nan;101305.25;692453;28;22627;-64
2021/09/04 00:14:01;;;;;;;17.23;11.18;;;;;;;14.96;nan;101301.88;690182;28;69022;-64
2021/09/04 00:14:24;;;;;;;16.58;10.68;;;;;;;14.96;nan;101307.31;691090;28;46177;-64
2021/09/04 00:14:45;;;;;;;18.35;11.30;;;;;;;14.96;nan;101311.91;691685;28;46575;-63
2021/09/04 00:15:09;;;;;;;17.25;11.57;;;;;;;14.95;nan;101302.91;691576;28;46188;-64
2021/09/04 00:15:32;;;;;;;15.85;10.88;;;;;;;14.94;nan;101308.56;690821;28;68883;-63
2021/09/04 00:15:53;;;;;;;17.70;10.90;;;;;;;14.93;nan;101301.41;690680;28;68914;-64
2021/09/04 00:16:15;;;;;;;19.38;11.27;;;;;;;14.91;nan;101298.88;691714;28;45481;-64
2021/09/04 00:16:37;;;;;;;17.10;10.77;;;;;;;14.90;nan;101301.81;692559;28;22621;-65
2021/09/04 00:16:59;;;;;;;18.00;11.50;;;;;;;14.88;nan;101299.28;692464;28;22269;-64
2021/09/04 00:17:20;;;;;;;17.13;11.60;;;;;;;14.88;nan;101312.03;690567;28;68945;-63
2021/09/04 00:17:42;;;;;;;18.92;11.43;;;;;;;14.88;nan;101303.88;691777;28;22172;-64
2021/09/04 00:18:03;;;;;;;17.52;11.02;;;;;;;14.87;nan;101296.75;691639;28;47533;-64
2021/09/04 00:18:29;;;;;;;17.20;11.23;;;;;;;14.85;nan;101296.94;692086;28;22524;-64
2021/09/04 00:18:50;;;;;;;17.85;11.23;;;;;;;14.87;nan;101299.47;687541;28;137660;-64
2021/09/04 00:19:11;;;;;;;18.83;11.05;;;;;;;14.86;nan;101300.50;690531;28;22604;-64
2021/09/04 00:19:34;;;;;;;17.00;11.00;;;;;;;14.85;nan;101304.25;692309;28;22640;-64
2021/09/04 00:19:55;;;;;;;16.48;10.70;;;;;;;14.84;nan;101300.69;691581;28;45491;-64
2021/09/04 00:20:18;;;;;;;16.27;10.73;;;;;;;14.84;nan;101305.28;691886;28;24355;-65
2021/09/04 00:20:40;;;;;;;16.35;10.93;;;;;;;14.84;nan;101299.84;689401;28;92024;-64
2021/09/04 00:21:02;;;;;;;18.83;10.85;;;;;;;14.82;nan;101310.09;692076;28;22621;-64
2021/09/04 00:21:25;;;;;;;14.88;10.55;;;;;;;14.84;nan;101313.44;690219;28;68317;-64
2021/09/04 00:21:46;;;;;;;15.70;10.88;;;;;;;14.83;nan;101303.59;687896;28;68474;-64
2021/09/04 00:22:07;;;;;;;17.38;10.60;;;;;;;14.82;nan;101293.75;689551;28;23566;-64
2021/09/04 00:22:29;;;;;;;18.15;10.75;;;;;;;14.84;nan;101297.13;688690;28;45927;-63
2021/09/04 00:22:50;;;;;;;18.02;11.07;;;;;;;14.84;nan;101302.56;688569;28;46073;-64
2021/09/04 00:23:12;;;;;;;17.20;10.90;;;;;;;14.82;nan;101310.91;689929;28;22652;-64
2021/09/04 00:23:33;;;;;;;17.45;10.77;;;;;;;14.81;nan;101295.66;692397;28;22357;-64
2021/09/04 00:23:55;;;;;;;15.55;10.48;;;;;;;14.80;nan;101293.13;691485;28;22659;-63
2021/09/04 00:24:17;;;;;;;16.67;10.32;;;;;;;14.82;nan;101300.03;690240;28;68838;-64
2021/09/04 00:24:38;;;;;;;15.93;10.25;;;;;;;14.83;nan;101300.88;692102;28;22015;-63
2021/09/04 00:24:59;;;;;;;17.30;10.65;;;;;;;14.81;nan;101301.09;691673;28;46046;-64
2021/09/04 00:25:21;;;;;;;16.35;10.85;;;;;;;14.82;nan;101299.22;691616;28;22692;-64
2021/09/04 00:25:44;;;;;;;15.65;10.70;;;;;;;14.79;nan;101294.97;692625;28;21990;-64
2021/09/04 00:26:05;;;;;;;18.02;10.93;;;;;;;14.79;nan;101305.84;690529;28;67941;-64
2021/09/04 00:26:28;;;;;;;16.55;10.63;;;;;;;14.77;nan;101308.78;691568;28;46053;-64
2021/09/04 00:26:49;;;;;;;16.50;10.43;;;;;;;14.77;nan;101307.94;691847;28;45483;-64
2021/09/04 00:27:10;;;;;;;15.32;10.35;;;;;;;14.78;nan;101294.16;691590;28;22256;-65
2021/09/04 00:27:32;;;;;;;16.17;10.60;;;;;;;14.77;nan;101289.72;691268;28;22630;-64
2021/09/04 00:27:54;;;;;;;15.57;10.25;;;;;;;14.81;nan;101298.38;689494;28;68913;-64
2021/09/04 00:28:15;;;;;;;16.20;10.32;;;;;;;14.82;nan;101300.03;692410;28;22623;-63
2021/09/04 00:28:36;;;;;;;21.75;11.13;;;;;;;14.85;nan;101298.81;692459;28;22624;-65
2021/09/04 00:28:58;;;;;;;17.70;10.70;;;;;;;14.86;nan;101297.75;691052;28;46195;-64
2021/09/04 00:29:20;;;;;;;15.13;10.77;;;;;;;14.86;nan;101295.91;691472;28;22631;-65
2021/09/04 00:29:41;;;;;;;16.38;11.02;;;;;;;14.89;nan;101297.38;691557;28;45469;-65
2021/09/04 00:30:03;;;;;;;19.38;11.32;;;;;;;14.90;nan;101296.38;692527;28;22629;-64
2021/09/04 00:30:25;;;;;;;18.38;10.88;;;;;;;14.91;nan;101298.06;691506;28;45486;-64
2021/09/04 00:30:47;;;;;;;15.32;10.43;;;;;;;14.93;nan;101298.69;691733;28;46857;-64
2021/09/04 00:31:08;;;;;;;15.15;10.07;;;;;;;14.94;nan;101295.78;690932;28;45496;-65
2021/09/04 00:31:30;;;;;;;18.42;10.70;;;;;;;14.91;nan;101298.88;691534;28;22612;-65
2021/09/04 00:31:51;;;;;;;19.67;10.95;;;;;;;14.95;nan;101299.34;691599;28;45087;-64
2021/09/04 00:32:13;;;;;;;15.48;11.13;;;;;;;14.95;nan;101299.34;692066;28;22718;-65
2021/09/04 00:32:34;;;;;;;17.52;11.30;;;;;;;14.94;nan;101298.50;691040;28;44846;-64
2021/09/04 00:32:56;;;;;;;20.02;11.75;;;;;;;14.94;nan;101294.97;691657;28;22605;-64
2021/09/04 00:33:17;;;;;;;20.35;11.75;;;;;;;14.95;nan;101304.78;691108;28;47278;-64
2021/09/04 00:33:39;;;;;;;18.23;10.88;;;;;;;14.94;nan;101297.66;692132;28;22599;-64
2021/09/04 00:34:00;;;;;;;17.13;10.75;;;;;;;14.93;nan;101299.53;691695;28;46099;-64
2021/09/04 00:34:22;;;;;;;16.55;10.52;;;;;;;14.92;nan;101292.44;692058;28;22622;-64
2021/09/04 00:34:43;;;;;;;13.82;10.15;;;;;;;14.93;nan;101298.69;691989;28;22234;-63
2021/09/04 00:35:06;;;;;;;16.10;10.43;;;;;;;14.92;nan;101295.16;689267;28;46171;-64
2021/09/04 00:35:27;;;;;;;17.40;10.73;;;;;;;14.94;nan;101294.97;689242;28;68935;-64
2021/09/04 00:35:49;;;;;;;16.75;11.00;;;;;;;14.93;nan;101302.25;690732;28;23239;-63
2021/09/04 00:36:10;;;;;;;16.80;10.55;;;;;;;14.94;nan;101297.66;691070;28;21822;-64
2021/09/04 00:36:33;;;;;;;18.25;10.75;;;;;;;14.91;nan;101295.34;690317;28;46002;-64
2021/09/04 00:36:55;;;;;;;17.00;10.95;;;;;;;14.90;nan;101296.38;689856;28;68956;-64
2021/09/04 00:37:16;;;;;;;17.50;10.98;;;;;;;14.87;nan;101297.56;692479;28;23200;-64
2021/09/04 00:37:37;;;;;;;17.88;10.85;;;;;;;14.86;nan;101293.19;690263;28;45503;-64
2021/09/04 00:37:59;;;;;;;16.67;10.98;;;;;;;14.84;nan;101292.53;692096;28;22905;-64
2021/09/04 00:38:21;;;;;;;16.52;10.45;;;;;;;14.83;nan;101300.88;690982;28;46355;-64
2021/09/04 00:38:42;;;;;;;17.77;10.45;;;;;;;14.82;nan;101294.59;692811;28;22658;-64
2021/09/04 00:39:04;;;;;;;17.77;10.18;;;;;;;14.80;nan;101299.41;691743;28;44675;-64
2021/09/04 00:39:26;;;;;;;16.40;10.55;;;;;;;14.78;nan;101294.16;690834;28;44441;-64
2021/09/04 00:39:47;;;;;;;17.38;11.32;;;;;;;14.78;nan;101304.19;690503;28;68041;-64
2021/09/04 00:40:10;;;;;;;16.05;11.02;;;;;;;14.77;nan;101302.50;691491;28;45905;-64
2021/09/04 00:40:31;;;;;;;15.68;10.52;;;;;;;14.77;nan;101291.63;691365;28;46166;-63
2021/09/04 00:40:53;;;;;;;16.45;10.15;;;;;;;14.77;nan;101303.31;690740;28;45759;-64
2021/09/04 00:41:17;;;;;;;16.05;11.00;;;;;;;14.79;nan;101292.25;691418;28;46055;-64
2021/09/04 00:41:39;;;;;;;14.35;10.45;;;;;;;14.78;nan;101305.03;689550;28;90841;-63
2021/09/04 00:42:00;;;;;;;17.95;11.02;;;;;;;14.80;nan;101295.84;692190;28;22607;-63
2021/09/04 00:42:23;;;;;;;17.48;10.95;;;;;;;14.82;nan;101293.75;691607;28;46001;-64
2021/09/04 00:42:44;;;;;;;14.45;10.30;;;;;;;14.84;nan;101294.41;690628;28;45802;-65
2021/09/04 00:43:05;;;;;;;15.80;10.40;;;;;;;14.85;nan;101293.38;691468;28;23838;-63
2021/09/04 00:43:27;;;;;;;15.68;10.50;;;;;;;14.87;nan;101296.75;691220;28;46086;-65
2021/09/04 00:43:49;;;;;;;16.40;10.65;;;;;;;14.86;nan;101289.59;692365;28;23259;-64
2021/09/04 00:44:14;;;;;;;16.70;10.88;;;;;;;14.89;nan;101291.94;689839;28;69939;-64
2021/09/04 00:44:36;;;;;;;18.48;10.95;;;;;;;14.87;nan;101292.13;688991;28;114709;-64
2021/09/04 00:44:57;;;;;;;20.73;10.95;;;;;;;14.90;nan;101299.09;692426;28;22656;-64
2021/09/04 00:45:19;;;;;;;16.63;10.77;;;;;;;14.89;nan;101292.81;691465;28;46646;-64
2021/09/04 00:45:41;;;;;;;18.70;11.48;;;;;;;14.90;nan;101293.63;691451;28;46183;-64
2021/09/04 00:46:06;;;;;;;16.75;10.85;;;;;;;14.90;nan;101290.91;691549;28;23794;-64
2021/09/04 00:46:28;;;;;;;18.65;11.23;;;;;;;14.89;nan;101291.94;688465;28;137599;-64
2021/09/04 00:46:50;;;;;;;19.85;11.57;;;;;;;14.90;nan;101288.19;692584;28;22199;-65
2021/09/04 00:47:11;;;;;;;17.90;11.38;;;;;;;14.91;nan;101303.50;691530;28;47239;-63
2021/09/04 00:47:33;;;;;;;16.40;11.00;;;;;;;14.91;nan;101295.34;692202;28;22681;-64
2021/09/04 00:47:57;;;;;;;15.68;10.60;;;;;;;14.92;nan;101299.72;691035;28;46089;-64
2021/09/04 00:48:19;;;;;;;15.95;10.52;;;;;;;14.91;nan;101296.16;689686;28;93065;-64
2021/09/04 00:48:41;;;;;;;16.17;10.65;;;;;;;14.92;nan;101299.72;691741;28;46072;-65
2021/09/04 00:49:02;;;;;;;15.80;10.80;;;;;;;14.91;nan;101296.16;691397;28;46097;-65
2021/09/04 00:49:23;;;;;;;16.17;10.60;;;;;;;14.91;nan;101293.44;691274;28;22651;-63
2021/09/04 00:49:45;;;;;;;17.52;10.93;;;;;;;14.91;nan;101295.34;692301;28;22626;-65
2021/09/04 00:50:07;;;;;;;16.95;10.98;;;;;;;14.90;nan;101297.19;691292;28;43890;-64
2021/09/04 00:50:30;;;;;;;16.52;10.88;;;;;;;14.90;nan;101297.19;691032;28;45595;-64
2021/09/04 00:50:51;;;;;;;16.58;10.85;;;;;;;14.90;nan;101296.38;690492;28;68921;-63
2021/09/04 00:51:13;;;;;;;19.17;10.65;;;;;;;14.90;nan;101296.38;691624;28;22634;-64
2021/09/04 00:51:36;;;;;;;18.13;10.32;;;;;;;14.89;nan;101297.38;691264;28;45860;-64
2021/09/04 00:51:57;;;;;;;16.02;10.55;;;;;;;14.88;nan;101295.72;690795;28;68895;-64
2021/09/04 00:52:19;;;;;;;16.05;10.88;;;;;;;14.88;nan;101293.00;692291;28;24624;-63
2021/09/04 00:52:41;;;;;;;15.27;10.77;;;;;;;14.88;nan;101295.72;690313;28;45953;-64
2021/09/04 00:53:03;;;;;;;16.20;10.70;;;;;;;14.86;nan;101292.31;691470;28;45125;-64
2021/09/04 00:53:25;;;;;;;18.25;10.88;;;;;;;14.87;nan;101292.13;691458;28;45452;-64
2021/09/04 00:53:47;;;;;;;16.52;11.35;;;;;;;14.87;nan;101296.75;690584;28;45498;-63
2021/09/04 00:54:08;;;;;;;14.82;9.98;;;;;;;14.86;nan;101295.91;691283;28;46166;-64
2021/09/04 00:54:29;;;;;;;14.00;9.57;;;;;;;14.87;nan;101300.28;691894;28;23207;-65
2021/09/04 00:54:52;;;;;;;17.08;10.57;;;;;;;14.87;nan;101294.84;692457;28;22242;-64
2021/09/04 00:55:14;;;;;;;16.27;10.38;;;;;;;14.87;nan;101296.75;689903;28;68093;-64
2021/09/04 00:55:35;;;;;;;17.35;10.48;;;;;;;14.86;nan;101298.63;691167;28;45479;-63
2021/09/04 00:55:58;;;;;;;19.50;11.05;;;;;;;14.87;nan;101294.03;690163;28;45063;-65
2021/09/04 00:56:22;;;;;;;18.08;10.85;;;;;;;14.86;nan;101295.91;690574;28;69028;-64
2021/09/04 00:56:43;;;;;;;17.08;10.35;;;;;;;14.84;nan;101292.53;690828;28;68917;-65
2021/09/04 00:57:05;;;;;;;15.30;10.35;;;;;;;14.86;nan;101295.03;691414;28;46130;-63
2021/09/04 00:57:27;;;;;;;15.27;10.68;;;;;;;14.86;nan;101295.03;692184;28;22931;-65
2021/09/04 00:57:49;;;;;;;15.02;10.13;;;;;;;14.87;nan;101300.28;690204;28;45979;-65
2021/09/04 00:58:12;;;;;;;16.70;10.68;;;;;;;14.86;nan;101295.03;690786;28;46174;-64
2021/09/04 00:58:34;;;;;;;15.50;10.48;;;;;;;14.85;nan;101294.22;690754;28;68927;-65
2021/09/04 00:58:56;;;;;;;20.05;10.80;;;;;;;14.85;nan;101299.66;691354;28;44406;-64
2021/09/04 00:59:18;;;;;;;19.25;10.75;;;;;;;14.86;nan;101300.50;690528;28;45017;-64
2021/09/04 00:59:40;;;;;;;17.67;10.38;;;;;;;14.85;nan;101298.81;692261;28;23202;-65
2021/09/04 01:00:02;;;;;;;16.95;10.52;;;;;;;14.85;nan;101293.38;690525;28;68918;-64
2021/09/04 01:00:23;;;;;;;18.80;10.88;;;;;;;14.84;nan;101294.41;692026;28;23203;-65
2021/09/04 01:00:50;;;;;;;18.23;10.70;;;;;;;14.84;nan;101299.84;690269;28;46184;-65
2021/09/04 01:01:12;;;;;;;18.40;11.17;;;;;;;14.83;nan;101290.84;687489;28;137780;-64
2021/09/04 01:01:35;;;;;;;14.38;10.65;;;;;;;14.82;nan;101305.47;690631;28;68533;-65
2021/09/04 01:01:56;;;;;;;14.98;10.65;;;;;;;14.81;nan;101298.38;691441;28;45295;-65
2021/09/04 01:02:19;;;;;;;16.55;10.68;;;;;;;14.78;nan;101288.72;690338;28;68536;-65
2021/09/04 01:02:40;;;;;;;16.33;10.10;;;;;;;14.78;nan;101291.44;691845;28;22739;-64
2021/09/04 01:03:02;;;;;;;15.15;10.30;;;;;;;14.79;nan;101294.97;691493;28;22582;-65
2021/09/04 01:03:24;;;;;;;15.15;10.40;;;;;;;14.78;nan;101305.03;690313;28;67989;-64
2021/09/04 01:03:45;;;;;;;16.85;10.55;;;;;;;14.78;nan;101288.72;692245;28;22590;-65
2021/09/04 01:04:07;;;;;;;17.85;10.80;;;;;;;14.77;nan;101292.44;691440;28;46097;-63
2021/09/04 01:04:28;;;;;;;17.10;10.48;;;;;;;14.76;nan;101287.19;692070;28;22184;-65
2021/09/04 01:04:51;;;;;;;15.73;9.75;;;;;;;14.76;nan;101292.63;691180;28;45601;-64
2021/09/04 01:05:13;;;;;;;16.67;10.32;;;;;;;14.75;nan;101285.53;690938;28;46662;-64
2021/09/04 01:05:35;;;;;;;16.00;10.82;;;;;;;14.72;nan;101285.91;690551;28;68955;-65
2021/09/04 01:05:57;;;;;;;15.95;10.70;;;;;;;14.74;nan;101287.41;691073;28;46165;-65
2021/09/04 01:06:20;;;;;;;15.82;10.60;;;;;;;14.72;nan;101289.47;691419;28;23814;-65
2021/09/04 01:06:42;;;;;;;15.35;10.27;;;;;;;14.78;nan;101293.31;689855;28;67842;-65
2021/09/04 01:07:05;;;;;;;16.02;10.13;;;;;;;14.76;nan;101301.66;689380;28;92012;-65
2021/09/04 01:07:27;;;;;;;17.15;9.90;;;;;;;14.77;nan;101284.28;691011;28;45239;-65
2021/09/04 01:07:51;;;;;;;16.25;10.20;;;;;;;14.78;nan;101285.16;689954;28;46260;-64
2021/09/04 01:08:14;;;;;;;16.85;10.95;;;;;;;14.80;nan;101290.41;688704;28;92147;-64
2021/09/04 01:08:36;;;;;;;16.27;10.98;;;;;;;14.80;nan;101284.97;689822;28;69022;-64
2021/09/04 01:08:58;;;;;;;17.38;10.85;;;;;;;14.81;nan;101282.06;690446;28;45072;-65
2021/09/04 01:09:22;;;;;;;17.40;10.57;;;;;;;14.82;nan;101281.00;689877;28;68044;-65
2021/09/04 01:09:43;;;;;;;15.90;10.80;;;;;;;14.83;nan;101287.28;691610;28;45084;-65
2021/09/04 01:10:08;;;;;;;15.50;10.63;;;;;;;14.86;nan;101284.16;689217;28;91096;-65
2021/09/04 01:10:30;;;;;;;14.90;10.52;;;;;;;14.85;nan;101290.66;691186;28;44940;-64
2021/09/04 01:10:54;;;;;;;15.75;10.45;;;;;;;14.86;nan;101292.31;689986;28;69055;-65
2021/09/04 01:11:16;;;;;;;15.43;10.55;;;;;;;14.86;nan;101287.75;688804;28;68961;-65
2021/09/04 01:11:37;;;;;;;16.92;10.45;;;;;;;14.87;nan;101291.31;690906;28;46063;-64
2021/09/04 01:11:59;;;;;;;14.27;9.77;;;;;;;14.87;nan;101285.88;691162;28;47443;-64
2021/09/04 01:12:22;;;;;;;14.43;10.23;;;;;;;14.87;nan;101278.53;691773;28;22621;-65
2021/09/04 01:12:44;;;;;;;14.57;10.25;;;;;;;14.89;nan;101284.66;690247;28;70062;-65
2021/09/04 01:13:05;;;;;;;14.45;10.38;;;;;;;14.88;nan;101280.25;692081;28;22647;-64
2021/09/04 01:13:26;;;;;;;16.15;10.38;;;;;;;14.91;nan;101288.00;691141;28;45594;-65
2021/09/04 01:13:48;;;;;;;16.98;10.10;;;;;;;14.92;nan;101283.41;692229;28;22557;-65
2021/09/04 01:14:10;;;;;;;16.23;10.13;;;;;;;14.91;nan;101285.28;691416;28;45618;-65
2021/09/04 01:14:31;;;;;;;15.23;10.10;;;;;;;14.91;nan;101279.84;691969;28;23598;-65
2021/09/04 01:14:52;;;;;;;13.80;9.95;;;;;;;14.92;nan;101289.72;691682;28;46041;-65
2021/09/04 01:15:15;;;;;;;15.45;10.23;;;;;;;14.91;nan;101293.44;692205;28;23036;-65
2021/09/04 01:15:36;;;;;;;16.85;10.50;;;;;;;14.92;nan;101288.84;691267;28;47247;-65
2021/09/04 01:15:57;;;;;;;17.05;10.63;;;;;;;14.92;nan;101286.13;691456;28;22754;-65
2021/09/04 01:16:18;;;;;;;19.33;10.88;;;;;;;14.92;nan;101291.56;691527;28;45073;-65
2021/09/04 01:16:41;;;;;;;16.65;10.95;;;;;;;14.91;nan;101288.00;692485;28;23700;-65
2021/09/04 01:17:04;;;;;;;15.20;10.75;;;;;;;14.91;nan;101284.47;691284;28;45617;-64
2021/09/04 01:17:25;;;;;;;15.85;10.82;;;;;;;14.92;nan;101286.97;690607;28;68122;-64
2021/09/04 01:17:47;;;;;;;17.27;10.63;;;;;;;14.91;nan;101293.44;691219;28;22608;-64
2021/09/04 01:18:08;;;;;;;16.85;10.45;;;;;;;14.89;nan;101289.22;691335;28;47246;-65
2021/09/04 01:18:30;;;;;;;17.50;10.75;;;;;;;14.89;nan;101295.53;692113;28;23341;-65
2021/09/04 01:18:51;;;;;;;15.57;10.95;;;;;;;14.87;nan;101288.59;691722;28;46153;-65
2021/09/04 01:19:13;;;;;;;15.30;10.25;;;;;;;14.86;nan;101293.19;690667;28;45068;-65
2021/09/04 01:19:34;;;;;;;15.48;10.20;;;;;;;14.83;nan;101287.28;692449;28;22562;-65
2021/09/04 01:19:56;;;;;;;16.85;10.93;;;;;;;14.81;nan;101290.22;692214;28;23206;-65
2021/09/04 01:20:17;;;;;;;16.92;10.60;;;;;;;14.79;nan;101297.69;690897;28;45483;-65
2021/09/04 01:20:39;;;;;;;14.93;10.50;;;;;;;14.76;nan;101289.94;690694;28;45066;-65
2021/09/04 01:21:01;;;;;;;17.33;10.20;;;;;;;14.72;nan;101284.03;693627;28;22758;-64
2021/09/04 01:21:22;;;;;;;16.73;11.32;;;;;;;14.71;nan;101300.53;693368;28;46368;-65
2021/09/04 01:21:46;;;;;;;15.98;10.82;;;;;;;14.66;nan;101295.66;694949;28;22250;-65
2021/09/04 01:22:07;;;;;;;14.55;10.23;;;;;;;14.64;nan;101292.31;692479;28;91924;-64
2021/09/04 01:22:31;;;;;;;16.60;11.10;;;;;;;14.61;nan;101298.13;694741;28;22186;-64
2021/09/04 01:22:52;;;;;;;14.50;10.23;;;;;;;14.58;nan;101296.59;691513;28;92168;-65
2021/09/04 01:23:14;;;;;;;17.60;10.88;;;;;;;14.56;nan;101303.25;691943;28;23202;-65
2021/09/04 01:23:36;;;;;;;21.35;11.32;;;;;;;14.53;nan;101296.31;691253;28;45508;-65
2021/09/04 01:23:57;;;;;;;18.35;10.75;;;;;;;14.52;nan;101299.22;691480;28;45470;-65
2021/09/04 01:24:19;;;;;;;21.48;10.98;;;;;;;14.50;nan;101296.69;692140;28;22602;-65
2021/09/04 01:24:41;;;;;;;16.92;10.77;;;;;;;14.49;nan;101296.88;692316;28;23277;-65
2021/09/04 01:25:04;;;;;;;16.55;10.65;;;;;;;14.49;nan;101296.88;690765;28;69973;-65
2021/09/04 01:25:29;;;;;;;16.92;10.63;;;;;;;14.49;nan;101296.88;690628;28;68865;-64
2021/09/04 01:25:52;;;;;;;19.15;11.23;;;;;;;14.47;nan;101299.78;688604;28;115082;-65
2021/09/04 01:26:16;;;;;;;19.75;10.82;;;;;;;14.45;nan;101288.28;690607;28;68469;-65
2021/09/04 01:26:37;;;;;;;18.15;10.23;;;;;;;14.46;nan;101297.25;689962;28;91324;-65
2021/09/04 01:26:59;;;;;;;19.08;11.32;;;;;;;14.45;nan;101299.16;692491;28;22559;-63
2021/09/04 01:27:20;;;;;;;17.52;11.38;;;;;;;14.44;nan;101296.63;691546;28;46060;-65
2021/09/04 01:27:42;;;;;;;15.75;11.02;;;;;;;14.42;nan;101294.94;691097;28;22152;-65
2021/09/04 01:28:04;;;;;;;16.67;11.20;;;;;;;14.42;nan;101299.53;691437;28;47228;-64
2021/09/04 01:28:25;;;;;;;16.35;10.95;;;;;;;14.42;nan;101297.66;691660;28;46025;-64
2021/09/04 01:28:47;;;;;;;17.63;11.32;;;;;;;14.44;nan;101296.63;692227;28;23266;-64
2021/09/04 01:29:09;;;;;;;19.17;11.38;;;;;;;14.42;nan;101289.50;692460;28;22617;-64
2021/09/04 01:29:30;;;;;;;17.40;10.88;;;;;;;14.45;nan;101295.56;690887;28;45937;-65
2021/09/04 01:29:51;;;;;;;18.17;10.85;;;;;;;14.44;nan;101297.47;691318;28;45056;-65
2021/09/04 01:30:13;;;;;;;15.60;10.48;;;;;;;14.44;nan;101292.03;691955;28;23093;-64
2021/09/04 01:30:36;;;;;;;17.77;10.88;;;;;;;14.44;nan;101296.63;691154;28;46055;-66
2021/09/04 01:30:57;;;;;;;17.52;10.88;;;;;;;14.44;nan;101293.91;690904;28;46040;-64
2021/09/04 01:31:18;;;;;;;17.88;11.25;;;;;;;14.44;nan;101293.91;692110;28;22627;-64
2021/09/04 01:31:40;;;;;;;18.77;11.25;;;;;;;14.45;nan;101298.28;691381;28;45113;-65
2021/09/04 01:32:02;;;;;;;19.42;10.63;;;;;;;14.45;nan;101296.44;691948;28;22779;-64
2021/09/04 01:32:23;;;;;;;17.38;10.73;;;;;;;14.47;nan;101293.53;691076;28;46188;-65
2021/09/04 01:32:45;;;;;;;17.58;10.88;;;;;;;14.46;nan;101292.66;690682;28;45460;-64
2021/09/04 01:33:06;;;;;;;17.70;11.65;;;;;;;14.45;nan;101296.44;692316;28;22094;-64
2021/09/04 01:33:27;;;;;;;17.25;11.25;;;;;;;14.45;nan;101293.72;691708;28;22621;-64
2021/09/04 01:33:50;;;;;;;16.33;10.15;;;;;;;14.45;nan;101299.16;690995;28;46647;-65
2021/09/04 01:34:12;;;;;;;18.90;10.40;;;;;;;14.45;nan;101299.16;689749;28;68634;-64
2021/09/04 01:34:33;;;;;;;17.75;10.65;;;;;;;14.44;nan;101285.75;690495;28;46035;-64
2021/09/04 01:34:54;;;;;;;20.05;11.63;;;;;;;14.45;nan;101292.84;691829;28;23304;-65
2021/09/04 01:35:21;;;;;;;19.13;11.10;;;;;;;14.42;nan;101292.22;690780;28;45878;-64
2021/09/04 01:35:42;;;;;;;18.45;11.63;;;;;;;14.40;nan;101294.28;687800;28;137003;-64
2021/09/04 01:36:03;;;;;;;15.85;10.90;;;;;;;14.39;nan;101291.75;691655;28;22209;-64
2021/09/04 01:36:30;;;;;;;17.00;11.38;;;;;;;14.38;nan;101298.22;690607;28;45516;-65
2021/09/04 01:36:52;;;;;;;17.23;11.77;;;;;;;14.35;nan;101299.41;688618;28;137020;-64
2021/09/04 01:37:13;;;;;;;17.88;11.40;;;;;;;14.33;nan;101293.34;691959;28;46065;-65
2021/09/04 01:37:35;;;;;;;20.05;11.07;;;;;;;14.33;nan;101293.34;692380;28;22216;-65
2021/09/04 01:37:57;;;;;;;17.88;11.13;;;;;;;14.31;nan;101289.97;691652;28;45130;-65
2021/09/04 01:38:19;;;;;;;18.38;11.48;;;;;;;14.31;nan;101289.97;691920;28;46077;-64
2021/09/04 01:38:40;;;;;;;17.88;11.00;;;;;;;14.31;nan;101300.84;691937;28;45516;-64
2021/09/04 01:39:03;;;;;;;19.45;11.10;;;;;;;14.30;nan;101285.56;692917;28;23187;-65
2021/09/04 01:39:24;;;;;;;17.90;11.25;;;;;;;14.30;nan;101290.16;689934;28;68860;-65
2021/09/04 01:39:46;;;;;;;18.27;10.95;;;;;;;14.30;nan;101291.00;692404;28;22253;-64
2021/09/04 01:40:09;;;;;;;20.55;11.02;;;;;;;14.30;nan;101291.00;693764;28;46084;-64
2021/09/04 01:40:30;;;;;;;17.20;10.63;;;;;;;14.30;nan;101288.28;693221;28;68785;-65
2021/09/04 01:40:52;;;;;;;17.15;11.25;;;;;;;14.28;nan;101287.63;693469;28;47163;-64
2021/09/04 01:41:15;;;;;;;18.48;11.55;;;;;;;14.29;nan;101281.16;695225;28;22930;-63
2021/09/04 01:41:38;;;;;;;18.42;11.48;;;;;;;14.27;nan;101277.78;693546;28;68623;-65
2021/09/04 01:41:59;;;;;;;18.95;11.18;;;;;;;14.31;nan;101291.81;692293;28;68747;-63
2021/09/04 01:42:20;;;;;;;19.52;11.38;;;;;;;14.30;nan;101291.00;692760;28;22565;-65
2021/09/04 01:42:43;;;;;;;20.50;11.40;;;;;;;14.29;nan;101283.03;692106;28;24796;-65
2021/09/04 01:43:04;;;;;;;21.58;11.38;;;;;;;14.32;nan;101285.38;691084;28;70302;-65
2021/09/04 01:43:25;;;;;;;17.58;10.98;;;;;;;14.32;nan;101288.09;691588;28;23208;-65